createdAt,value
2022-12-25T00:02:55.489Z,7.12
2022-12-25T00:07:57.340Z,7.08
2022-12-25T00:12:59.063Z,7.17
2022-12-25T00:18:00.697Z,7.11
2022-12-25T00:23:02.511Z,7.16
2022-12-25T00:28:04.343Z,7.06
2022-12-25T00:33:06.033Z,6.87
2022-12-25T00:38:08.011Z,6.57
2022-12-25T00:43:09.927Z,6.42
2022-12-25T00:48:11.769Z,6.34
2022-12-25T00:53:13.414Z,6.44
2022-12-25T00:58:15.151Z,6.33
2022-12-25T01:03:17.651Z,6.20
2022-12-25T01:08:19.425Z,6.03
2022-12-25T01:13:21.385Z,5.85
2022-12-25T01:18:24.686Z,5.73
2022-12-25T01:23:26.451Z,5.61
2022-12-25T01:28:28.340Z,5.38
2022-12-25T01:33:30.740Z,5.21
2022-12-25T01:38:32.522Z,4.98
2022-12-25T01:43:34.672Z,4.99
2022-12-25T01:48:38.475Z,4.70
2022-12-25T01:53:40.197Z,4.54
2022-12-25T01:58:42.096Z,4.70
2022-12-25T02:03:44.223Z,4.46
2022-12-25T02:08:45.933Z,4.11
2022-12-25T02:13:47.949Z,3.93
2022-12-25T02:18:53.955Z,3.98
2022-12-25T02:24:13.662Z,3.96
2022-12-25T02:29:34.776Z,3.81
2022-12-25T02:35:01.208Z,3.66
2022-12-25T02:40:24.638Z,3.57
2022-12-25T02:45:51.085Z,3.60
2022-12-25T02:51:13.861Z,3.59
2022-12-25T02:56:35.766Z,3.37
2022-12-25T03:01:57.178Z,3.16
2022-12-25T03:07:09.888Z,3.21
2022-12-25T03:12:20.297Z,3.34
2022-12-25T03:17:22.165Z,3.50
2022-12-25T03:22:48.589Z,3.08
2022-12-25T03:27:52.687Z,3.07
2022-12-25T03:33:43.412Z,3.06
2022-12-25T03:39:23.336Z,3.17
2022-12-25T03:44:54.268Z,2.86
2022-12-25T03:50:20.455Z,2.72
2022-12-25T03:55:43.414Z,2.65
2022-12-25T04:01:03.826Z,2.53
2022-12-25T04:06:24.125Z,2.80
2022-12-25T04:11:44.269Z,2.82
2022-12-25T04:17:04.422Z,2.72
2022-12-25T04:22:35.273Z,2.37
2022-12-25T04:27:55.496Z,2.59
2022-12-25T04:33:17.234Z,2.74
2022-12-25T04:38:21.092Z,2.53
2022-12-25T04:43:25.169Z,2.17
2022-12-25T04:48:28.245Z,2.15
2022-12-25T04:53:29.897Z,2.15
2022-12-25T04:58:32.213Z,2.08
2022-12-25T05:03:34.982Z,1.97
2022-12-25T05:08:37.225Z,1.74
2022-12-25T05:13:39.641Z,2.02
2022-12-25T05:18:41.641Z,1.90
2022-12-25T05:23:48.566Z,2.07
2022-12-25T05:28:50.431Z,1.97
2022-12-25T05:33:52.768Z,1.70
2022-12-25T05:38:54.542Z,1.64
2022-12-25T05:43:56.194Z,1.69
2022-12-25T05:48:57.912Z,1.65
2022-12-25T05:53:59.622Z,1.50
2022-12-25T05:59:01.316Z,1.52
2022-12-25T06:04:07.105Z,1.57
2022-12-25T06:09:13.934Z,1.63
2022-12-25T06:14:16.317Z,1.63
2022-12-25T06:19:18.264Z,1.68
2022-12-25T06:24:21.710Z,1.66
2022-12-25T06:29:23.452Z,1.41
2022-12-25T06:34:25.158Z,1.50
2022-12-25T06:39:26.964Z,1.36
2022-12-25T06:44:28.608Z,1.19
2022-12-25T06:49:30.323Z,1.10
2022-12-25T06:54:31.938Z,1.11
2022-12-25T06:59:33.667Z,1.52
2022-12-25T07:04:40.488Z,1.23
2022-12-25T07:09:42.695Z,1.21
2022-12-25T07:14:48.651Z,1.43
2022-12-25T07:19:50.416Z,1.30
2022-12-25T07:24:52.083Z,1.08
2022-12-25T07:29:53.724Z,1.14
2022-12-25T07:34:55.396Z,1.13
2022-12-25T07:39:57.048Z,1.11
2022-12-25T07:44:58.763Z,1.38
2022-12-25T07:50:00.476Z,1.14
2022-12-25T07:55:02.678Z,1.04
2022-12-25T08:00:05.936Z,1.19
2022-12-25T08:05:13.395Z,1.28
2022-12-25T08:10:15.118Z,1.48
2022-12-25T08:15:16.950Z,1.88
2022-12-25T08:20:18.628Z,1.97
2022-12-25T08:25:20.325Z,1.97
2022-12-25T08:30:22.171Z,2.23
2022-12-25T08:35:24.285Z,2.38
2022-12-25T08:40:27.070Z,2.90
2022-12-25T08:45:34.671Z,3.23
2022-12-25T08:50:36.909Z,3.36
2022-12-25T08:55:38.851Z,3.36
2022-12-25T09:00:41.045Z,3.22
2022-12-25T09:05:42.695Z,3.42
2022-12-25T09:10:44.707Z,3.41
2022-12-25T09:15:46.413Z,3.66
2022-12-25T09:20:57.565Z,4.09
2022-12-25T09:26:00.681Z,4.21
2022-12-25T09:31:02.999Z,4.12
2022-12-25T09:36:07.503Z,4.04
2022-12-25T09:41:15.712Z,4.21
2022-12-25T09:46:21.180Z,4.29
2022-12-25T09:51:25.799Z,4.43
2022-12-25T09:56:27.719Z,4.36
2022-12-25T10:01:33.324Z,4.68
2022-12-25T10:06:43.425Z,4.79
2022-12-25T10:11:51.603Z,4.50
2022-12-25T10:17:27.338Z,4.40
2022-12-25T10:22:40.727Z,4.66
2022-12-25T10:27:44.232Z,5.15
2022-12-25T10:32:47.510Z,5.30
2022-12-25T10:37:58.657Z,5.43
2022-12-25T10:43:12.984Z,5.31
2022-12-25T10:48:26.491Z,5.30
2022-12-25T10:53:37.380Z,5.39
2022-12-25T10:58:40.256Z,5.45
2022-12-25T11:03:46.019Z,5.66
2022-12-25T11:08:53.919Z,5.68
2022-12-25T11:14:02.285Z,6.15
2022-12-25T11:19:24.307Z,7.30
2022-12-25T11:24:31.304Z,6.89
2022-12-25T11:29:33.012Z,7.03
2022-12-25T11:34:44.002Z,7.26
2022-12-25T11:39:45.874Z,6.74
2022-12-25T11:45:17.025Z,7.14
2022-12-25T11:50:20.512Z,6.91
2022-12-25T11:55:29.256Z,6.79
2022-12-25T12:00:35.316Z,7.13
2022-12-25T12:05:46.824Z,6.99
2022-12-25T12:11:16.444Z,7.06
2022-12-25T12:16:19.290Z,7.07
2022-12-25T12:21:29.955Z,6.99
2022-12-25T12:26:36.913Z,7.06
2022-12-25T12:31:45.630Z,7.14
2022-12-25T12:36:48.538Z,7.28
2022-12-25T12:41:50.561Z,7.70
2022-12-25T12:46:57.444Z,7.63
2022-12-25T12:52:07.366Z,7.86
2022-12-25T12:57:25.302Z,8.02
2022-12-25T13:02:58.272Z,8.33
2022-12-25T13:08:26.301Z,8.42
2022-12-25T13:13:34.359Z,8.64
2022-12-25T13:18:40.073Z,8.43
2022-12-25T13:23:41.768Z,8.31
2022-12-25T13:28:46.654Z,8.45
2022-12-25T13:33:51.264Z,8.38
2022-12-25T13:38:57.504Z,8.37
2022-12-25T13:44:00.441Z,8.40
2022-12-25T13:49:02.100Z,8.39
2022-12-25T13:54:05.863Z,8.21
2022-12-25T13:59:16.298Z,8.26
2022-12-25T14:04:24.027Z,8.08
2022-12-25T14:09:25.946Z,7.71
2022-12-25T14:14:28.011Z,7.73
2022-12-25T14:19:31.927Z,7.69
2022-12-25T14:24:34.598Z,7.87
2022-12-25T14:29:44.330Z,7.67
2022-12-25T14:34:48.623Z,7.78
2022-12-25T14:40:19.230Z,7.78
2022-12-25T14:45:38.459Z,7.76
2022-12-25T14:50:44.321Z,7.74
2022-12-25T14:55:54.186Z,7.76
2022-12-25T15:00:58.710Z,7.76
2022-12-25T15:06:02.500Z,7.49
2022-12-25T15:11:04.648Z,7.52
2022-12-25T15:16:13.185Z,7.33
2022-12-25T15:21:33.136Z,7.36
2022-12-25T15:26:34.912Z,7.37
2022-12-25T15:31:39.164Z,7.30
2022-12-25T15:36:41.000Z,7.34
2022-12-25T15:42:01.298Z,7.32
2022-12-25T15:47:03.113Z,7.48
2022-12-25T15:52:06.415Z,7.46
2022-12-25T15:57:19.660Z,7.29
2022-12-25T16:02:21.711Z,7.38
2022-12-25T16:07:25.859Z,7.34
2022-12-25T16:12:27.733Z,7.12
2022-12-25T16:17:29.514Z,7.30
2022-12-25T16:22:39.600Z,7.46
2022-12-25T16:27:42.190Z,7.50
2022-12-25T16:32:48.402Z,7.16
2022-12-25T16:37:50.127Z,7.49
2022-12-25T16:42:52.116Z,7.14
2022-12-25T16:47:54.094Z,6.90
2022-12-25T16:52:55.871Z,6.91
2022-12-25T16:57:58.798Z,7.27
2022-12-25T17:03:01.304Z,7.23
2022-12-25T17:08:03.882Z,7.49
2022-12-25T17:13:05.771Z,7.47
2022-12-25T17:18:09.057Z,7.62
2022-12-25T17:23:10.809Z,7.77
2022-12-25T17:28:13.821Z,7.66
2022-12-25T17:33:15.654Z,7.45
2022-12-25T17:38:17.592Z,7.31
2022-12-25T17:43:21.063Z,7.58
2022-12-25T17:48:23.096Z,7.59
2022-12-25T17:53:24.929Z,7.68
2022-12-25T17:58:27.563Z,7.78
2022-12-25T18:03:29.452Z,7.76
2022-12-25T18:08:38.605Z,7.86
2022-12-25T18:13:48.253Z,7.92
2022-12-25T18:18:52.658Z,7.87
2022-12-25T18:23:54.928Z,7.93
2022-12-25T18:28:58.279Z,7.92
2022-12-25T18:34:04.391Z,7.83
2022-12-25T18:39:06.321Z,7.85
2022-12-25T18:44:08.096Z,7.87
2022-12-25T18:49:11.087Z,7.68
2022-12-25T18:54:12.808Z,7.79
2022-12-25T18:59:14.663Z,7.63
2022-12-25T19:04:16.701Z,7.57
2022-12-25T19:09:18.533Z,7.75
2022-12-25T19:14:20.499Z,7.67
2022-12-25T19:19:23.446Z,7.90
2022-12-25T19:24:25.524Z,8.08
2022-12-25T19:29:27.430Z,7.66
2022-12-25T19:34:29.267Z,7.62
2022-12-25T19:39:31.227Z,7.89
2022-12-25T19:44:33.014Z,7.93
2022-12-25T19:49:34.835Z,7.80
2022-12-25T19:54:36.584Z,7.78
2022-12-25T19:59:39.172Z,8.01
2022-12-25T20:04:41.041Z,7.98
2022-12-25T20:09:42.851Z,8.03
2022-12-25T20:14:44.768Z,8.33
2022-12-25T20:19:46.538Z,8.61
2022-12-25T20:24:49.108Z,8.90
2022-12-25T20:29:51.131Z,9.17
2022-12-25T20:34:53.219Z,9.53
2022-12-25T20:39:55.313Z,9.38
2022-12-25T20:44:57.195Z,9.73
2022-12-25T20:49:59.010Z,9.82
2022-12-25T20:55:01.078Z,10.23
2022-12-25T21:00:04.972Z,10.15
2022-12-25T21:05:11.341Z,10.22
2022-12-25T21:10:13.177Z,10.11
2022-12-25T21:15:15.799Z,10.16
2022-12-25T21:20:17.735Z,10.13
2022-12-25T21:25:19.327Z,9.89
2022-12-25T21:30:20.989Z,9.87
2022-12-25T21:35:22.662Z,9.80
2022-12-25T21:40:24.849Z,9.81
2022-12-25T21:45:26.680Z,9.69
2022-12-25T21:50:46.745Z,9.58
2022-12-25T21:56:08.637Z,9.33
2022-12-25T22:01:11.626Z,9.15
2022-12-25T22:06:31.989Z,8.78
2022-12-25T22:11:52.744Z,8.87
2022-12-25T22:17:12.572Z,8.92
2022-12-25T22:22:17.123Z,8.63
2022-12-25T22:27:19.600Z,8.39
2022-12-25T22:32:21.375Z,8.66
2022-12-25T22:37:23.188Z,8.55
2022-12-25T22:42:24.888Z,8.36
2022-12-25T22:47:26.691Z,8.22
2022-12-25T22:52:28.339Z,8.05
2022-12-25T22:57:29.979Z,8.13
2022-12-25T23:02:31.938Z,8.13
2022-12-25T23:07:33.785Z,8.01
2022-12-25T23:12:53.762Z,8.00
2022-12-25T23:18:27.718Z,8.14
2022-12-25T23:23:47.815Z,8.86
2022-12-25T23:29:07.745Z,8.88
2022-12-25T23:34:10.194Z,8.53
2022-12-25T23:39:11.801Z,8.24
2022-12-25T23:44:14.110Z,8.37
2022-12-25T23:49:15.851Z,8.21
2022-12-25T23:54:21.539Z,8.28
2022-12-25T23:59:24.655Z,8.34
